sensor_id;sensor_type;location;lat;lon;timestamp;temperature;humidity
72591;SHT31;60625;51.212;5.952;2023-01-29T00:03:12;-1.38;80.56
72591;SHT31;60625;51.212;5.952;2023-01-29T00:08:15;-1.41;80.68
72591;SHT31;60625;51.212;5.952;2023-01-29T00:13:15;-1.42;80.64
72591;SHT31;60625;51.212;5.952;2023-01-29T00:18:16;-1.44;80.60
72591;SHT31;60625;51.212;5.952;2023-01-29T00:23:16;-1.45;80.57
72591;SHT31;60625;51.212;5.952;2023-01-29T00:28:17;-1.45;80.65
72591;SHT31;60625;51.212;5.952;2023-01-29T00:33:18;-1.47;80.71
72591;SHT31;60625;51.212;5.952;2023-01-29T00:38:19;-1.47;80.83
72591;SHT31;60625;51.212;5.952;2023-01-29T00:43:19;-1.48;80.96
72591;SHT31;60625;51.212;5.952;2023-01-29T00:48:38;-1.48;81.06
72591;SHT31;60625;51.212;5.952;2023-01-29T00:53:39;-1.50;80.92
72591;SHT31;60625;51.212;5.952;2023-01-29T00:58:39;-1.51;80.98
72591;SHT31;60625;51.212;5.952;2023-01-29T01:03:41;-1.50;81.15
72591;SHT31;60625;51.212;5.952;2023-01-29T01:08:45;-1.49;81.17
72591;SHT31;60625;51.212;5.952;2023-01-29T01:14:03;-1.53;81.46
72591;SHT31;60625;51.212;5.952;2023-01-29T01:19:04;-1.53;81.86
72591;SHT31;60625;51.212;5.952;2023-01-29T01:24:05;-1.52;82.04
72591;SHT31;60625;51.212;5.952;2023-01-29T01:29:05;-1.53;82.18
72591;SHT31;60625;51.212;5.952;2023-01-29T01:34:06;-1.53;82.35
72591;SHT31;60625;51.212;5.952;2023-01-29T01:39:07;-1.49;82.47
72591;SHT31;60625;51.212;5.952;2023-01-29T01:44:48;-1.48;82.63
72591;SHT31;60625;51.212;5.952;2023-01-29T01:50:02;-1.46;82.80
72591;SHT31;60625;51.212;5.952;2023-01-29T01:55:09;-1.45;82.81
72591;SHT31;60625;51.212;5.952;2023-01-29T02:00:14;-1.43;82.73
72591;SHT31;60625;51.212;5.952;2023-01-29T02:05:17;-1.45;82.71
72591;SHT31;60625;51.212;5.952;2023-01-29T02:10:44;-1.47;82.82
72591;SHT31;60625;51.212;5.952;2023-01-29T02:15:46;-1.47;82.69
72591;SHT31;60625;51.212;5.952;2023-01-29T02:21:01;-1.48;82.61
72591;SHT31;60625;51.212;5.952;2023-01-29T02:48:42;-1.46;83.15
72591;SHT31;60625;51.212;5.952;2023-01-29T02:59:51;-1.40;83.18
72591;SHT31;60625;51.212;5.952;2023-01-29T03:04:59;-1.36;83.44
72591;SHT31;60625;51.212;5.952;2023-01-29T03:10:27;-1.32;83.54
72591;SHT31;60625;51.212;5.952;2023-01-29T03:15:38;-1.26;83.39
72591;SHT31;60625;51.212;5.952;2023-01-29T03:20:57;-1.23;83.43
72591;SHT31;60625;51.212;5.952;2023-01-29T03:26:24;-1.16;83.55
72591;SHT31;60625;51.212;5.952;2023-01-29T03:31:44;-1.10;83.61
72591;SHT31;60625;51.212;5.952;2023-01-29T03:37:10;-1.06;83.72
72591;SHT31;60625;51.212;5.952;2023-01-29T03:42:27;-1.04;83.86
72591;SHT31;60625;51.212;5.952;2023-01-29T03:53:16;-0.97;83.94
72591;SHT31;60625;51.212;5.952;2023-01-29T03:58:56;-0.96;84.00
72591;SHT31;60625;51.212;5.952;2023-01-29T04:04:44;-0.94;84.06
72591;SHT31;60625;51.212;5.952;2023-01-29T04:09:57;-0.92;84.00
72591;SHT31;60625;51.212;5.952;2023-01-29T04:15:07;-0.93;84.01
72591;SHT31;60625;51.212;5.952;2023-01-29T04:20:14;-0.95;84.00
72591;SHT31;60625;51.212;5.952;2023-01-29T04:25:20;-0.97;83.96
72591;SHT31;60625;51.212;5.952;2023-01-29T04:30:43;-1.00;83.92
72591;SHT31;60625;51.212;5.952;2023-01-29T04:41:41;-1.11;84.00
72591;SHT31;60625;51.212;5.952;2023-01-29T05:03:36;-1.24;83.96
72591;SHT31;60625;51.212;5.952;2023-01-29T05:08:40;-1.25;84.06
72591;SHT31;60625;51.212;5.952;2023-01-29T05:13:41;-1.25;84.15
72591;SHT31;60625;51.212;5.952;2023-01-29T05:18:42;-1.23;84.13
72591;SHT31;60625;51.212;5.952;2023-01-29T05:23:43;-1.18;84.11
72591;SHT31;60625;51.212;5.952;2023-01-29T05:28:52;-1.14;84.11
72591;SHT31;60625;51.212;5.952;2023-01-29T05:33:52;-1.11;84.18
72591;SHT31;60625;51.212;5.952;2023-01-29T05:38:54;-1.09;84.21
72591;SHT31;60625;51.212;5.952;2023-01-29T05:43:55;-1.05;84.27
72591;SHT31;60625;51.212;5.952;2023-01-29T05:48:56;-1.00;84.31
72591;SHT31;60625;51.212;5.952;2023-01-29T05:53:56;-0.95;84.30
72591;SHT31;60625;51.212;5.952;2023-01-29T05:58:56;-0.92;84.30
72591;SHT31;60625;51.212;5.952;2023-01-29T06:03:57;-0.88;84.39
72591;SHT31;60625;51.212;5.952;2023-01-29T06:08:57;-0.83;84.47
72591;SHT31;60625;51.212;5.952;2023-01-29T06:13:58;-0.81;84.56
72591;SHT31;60625;51.212;5.952;2023-01-29T06:18:59;-0.79;84.48
72591;SHT31;60625;51.212;5.952;2023-01-29T06:23:59;-0.77;84.36
72591;SHT31;60625;51.212;5.952;2023-01-29T06:29:00;-0.74;84.21
72591;SHT31;60625;51.212;5.952;2023-01-29T06:34:00;-0.73;84.16
72591;SHT31;60625;51.212;5.952;2023-01-29T06:39:00;-0.69;84.18
72591;SHT31;60625;51.212;5.952;2023-01-29T06:44:01;-0.64;84.10
72591;SHT31;60625;51.212;5.952;2023-01-29T06:49:02;-0.60;84.10
72591;SHT31;60625;51.212;5.952;2023-01-29T06:54:03;-0.58;84.01
72591;SHT31;60625;51.212;5.952;2023-01-29T06:59:03;-0.55;84.01
72591;SHT31;60625;51.212;5.952;2023-01-29T07:04:04;-0.52;84.01
72591;SHT31;60625;51.212;5.952;2023-01-29T07:09:05;-0.48;84.08
72591;SHT31;60625;51.212;5.952;2023-01-29T07:14:05;-0.47;84.09
72591;SHT31;60625;51.212;5.952;2023-01-29T07:19:06;-0.47;84.11
72591;SHT31;60625;51.212;5.952;2023-01-29T07:24:07;-0.45;84.10
72591;SHT31;60625;51.212;5.952;2023-01-29T07:29:08;-0.45;84.15
72591;SHT31;60625;51.212;5.952;2023-01-29T07:34:08;-0.42;84.10
72591;SHT31;60625;51.212;5.952;2023-01-29T07:39:09;-0.38;84.09
72591;SHT31;60625;51.212;5.952;2023-01-29T07:44:09;-0.34;84.11
72591;SHT31;60625;51.212;5.952;2023-01-29T07:49:10;-0.30;84.10
72591;SHT31;60625;51.212;5.952;2023-01-29T07:54:10;-0.27;84.01
72591;SHT31;60625;51.212;5.952;2023-01-29T07:59:11;-0.23;83.94
72591;SHT31;60625;51.212;5.952;2023-01-29T08:04:11;-0.22;83.78
72591;SHT31;60625;51.212;5.952;2023-01-29T08:09:12;-0.22;83.59
72591;SHT31;60625;51.212;5.952;2023-01-29T08:14:12;-0.20;83.41
72591;SHT31;60625;51.212;5.952;2023-01-29T08:19:13;-0.18;83.34
72591;SHT31;60625;51.212;5.952;2023-01-29T08:24:14;-0.15;83.36
72591;SHT31;60625;51.212;5.952;2023-01-29T08:29:14;-0.09;83.38
72591;SHT31;60625;51.212;5.952;2023-01-29T08:34:15;-0.08;83.13
72591;SHT31;60625;51.212;5.952;2023-01-29T08:39:15;-0.07;82.91
72591;SHT31;60625;51.212;5.952;2023-01-29T08:44:15;-0.05;82.89
72591;SHT31;60625;51.212;5.952;2023-01-29T08:49:16;-0.03;82.86
72591;SHT31;60625;51.212;5.952;2023-01-29T08:54:17;0.01;82.90
72591;SHT31;60625;51.212;5.952;2023-01-29T08:59:17;0.06;82.88
72591;SHT31;60625;51.212;5.952;2023-01-29T09:04:18;0.09;82.71
72591;SHT31;60625;51.212;5.952;2023-01-29T09:09:18;0.12;82.51
72591;SHT31;60625;51.212;5.952;2023-01-29T09:14:19;0.14;82.43
72591;SHT31;60625;51.212;5.952;2023-01-29T09:19:20;0.17;82.25
72591;SHT31;60625;51.212;5.952;2023-01-29T09:24:20;0.23;82.26
72591;SHT31;60625;51.212;5.952;2023-01-29T09:29:21;0.30;82.17
72591;SHT31;60625;51.212;5.952;2023-01-29T09:34:21;0.36;82.04
72591;SHT31;60625;51.212;5.952;2023-01-29T09:39:22;0.43;81.89
72591;SHT31;60625;51.212;5.952;2023-01-29T09:49:51;0.53;81.54
72591;SHT31;60625;51.212;5.952;2023-01-29T09:55:21;0.58;81.44
72591;SHT31;60625;51.212;5.952;2023-01-29T10:00:36;0.63;81.29
72591;SHT31;60625;51.212;5.952;2023-01-29T10:06:04;0.70;81.20
72591;SHT31;60625;51.212;5.952;2023-01-29T10:28:24;0.85;80.35
72591;SHT31;60625;51.212;5.952;2023-01-29T10:33:42;0.89;80.46
72591;SHT31;60625;51.212;5.952;2023-01-29T10:38:51;0.94;80.31
72591;SHT31;60625;51.212;5.952;2023-01-29T10:54:42;1.14;80.44
72591;SHT31;60625;51.212;5.952;2023-01-29T11:00:00;1.18;80.21
72591;SHT31;60625;51.212;5.952;2023-01-29T11:05:35;1.19;79.77
72591;SHT31;60625;51.212;5.952;2023-01-29T11:10:40;1.21;79.68
72591;SHT31;60625;51.212;5.952;2023-01-29T11:15:59;1.22;79.56
72591;SHT31;60625;51.212;5.952;2023-01-29T11:21:01;1.25;79.69
72591;SHT31;60625;51.212;5.952;2023-01-29T11:26:04;1.29;79.81
72591;SHT31;60625;51.212;5.952;2023-01-29T11:31:24;1.36;79.96
72591;SHT31;60625;51.212;5.952;2023-01-29T11:36:36;1.38;79.39
72591;SHT31;60625;51.212;5.952;2023-01-29T11:41:41;1.39;79.32
72591;SHT31;60625;51.212;5.952;2023-01-29T11:46:46;1.42;79.30
72591;SHT31;60625;51.212;5.952;2023-01-29T11:51:50;1.44;79.41
72591;SHT31;60625;51.212;5.952;2023-01-29T11:56:54;1.49;79.53
72591;SHT31;60625;51.212;5.952;2023-01-29T12:02:01;1.53;79.36
72591;SHT31;60625;51.212;5.952;2023-01-29T12:07:10;1.55;79.34
72591;SHT31;60625;51.212;5.952;2023-01-29T12:17:36;1.62;79.03
72591;SHT31;60625;51.212;5.952;2023-01-29T12:22:41;1.65;79.18
72591;SHT31;60625;51.212;5.952;2023-01-29T12:39:10;1.85;78.92
72591;SHT31;60625;51.212;5.952;2023-01-29T12:44:20;1.88;79.13
72591;SHT31;60625;51.212;5.952;2023-01-29T12:49:45;1.97;79.11
72591;SHT31;60625;51.212;5.952;2023-01-29T12:55:09;2.04;79.03
72591;SHT31;60625;51.212;5.952;2023-01-29T13:00:43;2.14;79.00
72591;SHT31;60625;51.212;5.952;2023-01-29T13:11:34;2.26;78.57
72591;SHT31;60625;51.212;5.952;2023-01-29T13:17:16;2.30;78.56
72591;SHT31;60625;51.212;5.952;2023-01-29T13:22:23;2.31;78.33
72591;SHT31;60625;51.212;5.952;2023-01-29T13:27:27;2.32;78.50
72591;SHT31;60625;51.212;5.952;2023-01-29T13:32:31;2.35;78.58
72591;SHT31;60625;51.212;5.952;2023-01-29T13:37:35;2.36;78.29
72591;SHT31;60625;51.212;5.952;2023-01-29T13:42:42;2.39;78.42
72591;SHT31;60625;51.212;5.952;2023-01-29T13:47:46;2.43;78.35
72591;SHT31;60625;51.212;5.952;2023-01-29T13:52:56;2.47;78.17
72591;SHT31;60625;51.212;5.952;2023-01-29T14:03:41;2.50;77.92
72591;SHT31;60625;51.212;5.952;2023-01-29T14:08:45;2.53;78.13
72591;SHT31;60625;51.212;5.952;2023-01-29T14:13:47;2.57;78.16
72591;SHT31;60625;51.212;5.952;2023-01-29T14:18:51;2.61;78.14
72591;SHT31;60625;51.212;5.952;2023-01-29T14:24:06;2.65;78.15
72591;SHT31;60625;51.212;5.952;2023-01-29T14:29:18;2.70;78.10
72591;SHT31;60625;51.212;5.952;2023-01-29T14:39:44;2.76;77.88
72591;SHT31;60625;51.212;5.952;2023-01-29T14:55:51;2.88;76.40
72591;SHT31;60625;51.212;5.952;2023-01-29T15:01:01;2.90;76.25
72591;SHT31;60625;51.212;5.952;2023-01-29T15:06:08;2.93;76.21
72591;SHT31;60625;51.212;5.952;2023-01-29T15:11:43;2.93;76.12
72591;SHT31;60625;51.212;5.952;2023-01-29T15:22:13;2.92;76.03
72591;SHT31;60625;51.212;5.952;2023-01-29T15:27:16;2.92;76.32
72591;SHT31;60625;51.212;5.952;2023-01-29T15:32:22;2.94;76.67
72591;SHT31;60625;51.212;5.952;2023-01-29T15:37:32;2.97;77.00
72591;SHT31;60625;51.212;5.952;2023-01-29T15:42:42;2.99;76.83
72591;SHT31;60625;51.212;5.952;2023-01-29T15:47:47;2.98;76.44
72591;SHT31;60625;51.212;5.952;2023-01-29T15:52:49;2.98;76.42
72591;SHT31;60625;51.212;5.952;2023-01-29T15:57:52;2.97;76.47
72591;SHT31;60625;51.212;5.952;2023-01-29T16:02:53;2.95;76.57
72591;SHT31;60625;51.212;5.952;2023-01-29T16:08:00;2.95;76.57
72591;SHT31;60625;51.212;5.952;2023-01-29T16:13:01;2.93;76.41
72591;SHT31;60625;51.212;5.952;2023-01-29T16:18:03;2.93;76.50
72591;SHT31;60625;51.212;5.952;2023-01-29T16:23:25;2.93;76.64
72591;SHT31;60625;51.212;5.952;2023-01-29T16:28:29;2.93;76.71
72591;SHT31;60625;51.212;5.952;2023-01-29T16:33:34;2.94;76.74
72591;SHT31;60625;51.212;5.952;2023-01-29T16:38:38;2.94;76.74
72591;SHT31;60625;51.212;5.952;2023-01-29T16:48:43;2.94;76.89
72591;SHT31;60625;51.212;5.952;2023-01-29T16:54:00;2.94;76.97
72591;SHT31;60625;51.212;5.952;2023-01-29T16:59:11;2.93;77.02
72591;SHT31;60625;51.212;5.952;2023-01-29T17:04:19;2.93;76.93
72591;SHT31;60625;51.212;5.952;2023-01-29T17:09:28;2.93;76.83
72591;SHT31;60625;51.212;5.952;2023-01-29T17:14:33;2.93;76.72
72591;SHT31;60625;51.212;5.952;2023-01-29T17:19:37;2.93;76.50
72591;SHT31;60625;51.212;5.952;2023-01-29T17:24:38;2.92;76.40
72591;SHT31;60625;51.212;5.952;2023-01-29T17:29:38;2.93;76.26
72591;SHT31;60625;51.212;5.952;2023-01-29T17:34:39;2.93;76.26
72591;SHT31;60625;51.212;5.952;2023-01-29T17:39:40;2.94;76.17
72591;SHT31;60625;51.212;5.952;2023-01-29T17:44:41;2.94;75.97
72591;SHT31;60625;51.212;5.952;2023-01-29T17:49:42;2.95;75.83
72591;SHT31;60625;51.212;5.952;2023-01-29T17:54:43;2.96;75.79
72591;SHT31;60625;51.212;5.952;2023-01-29T17:59:43;2.96;75.79
72591;SHT31;60625;51.212;5.952;2023-01-29T18:04:44;2.97;75.89
72591;SHT31;60625;51.212;5.952;2023-01-29T18:09:45;2.98;75.74
72591;SHT31;60625;51.212;5.952;2023-01-29T18:14:45;2.99;75.64
72591;SHT31;60625;51.212;5.952;2023-01-29T18:19:46;2.99;75.82
72591;SHT31;60625;51.212;5.952;2023-01-29T18:24:47;2.99;75.72
72591;SHT31;60625;51.212;5.952;2023-01-29T18:29:47;2.99;75.76
72591;SHT31;60625;51.212;5.952;2023-01-29T18:34:49;3.00;75.78
72591;SHT31;60625;51.212;5.952;2023-01-29T18:39:50;3.03;75.66
72591;SHT31;60625;51.212;5.952;2023-01-29T18:44:50;3.05;75.76
72591;SHT31;60625;51.212;5.952;2023-01-29T18:49:50;3.07;75.82
72591;SHT31;60625;51.212;5.952;2023-01-29T18:54:51;3.08;76.31
72591;SHT31;60625;51.212;5.952;2023-01-29T18:59:52;3.09;76.48
72591;SHT31;60625;51.212;5.952;2023-01-29T19:04:53;3.10;76.86
72591;SHT31;60625;51.212;5.952;2023-01-29T19:09:54;3.09;77.63
72591;SHT31;60625;51.212;5.952;2023-01-29T19:14:54;3.09;78.10
72591;SHT31;60625;51.212;5.952;2023-01-29T19:19:55;3.08;78.47
72591;SHT31;60625;51.212;5.952;2023-01-29T19:25:01;3.09;78.53
72591;SHT31;60625;51.212;5.952;2023-01-29T19:30:02;3.10;78.61
72591;SHT31;60625;51.212;5.952;2023-01-29T19:35:04;3.11;78.64
72591;SHT31;60625;51.212;5.952;2023-01-29T19:40:06;3.12;78.81
72591;SHT31;60625;51.212;5.952;2023-01-29T19:45:07;3.13;78.84
72591;SHT31;60625;51.212;5.952;2023-01-29T19:50:09;3.13;78.93
72591;SHT31;60625;51.212;5.952;2023-01-29T19:55:10;3.13;79.00
72591;SHT31;60625;51.212;5.952;2023-01-29T20:00:12;3.14;79.03
72591;SHT31;60625;51.212;5.952;2023-01-29T20:05:16;3.14;79.03
72591;SHT31;60625;51.212;5.952;2023-01-29T20:10:17;3.16;79.12
72591;SHT31;60625;51.212;5.952;2023-01-29T20:15:18;3.17;79.18
72591;SHT31;60625;51.212;5.952;2023-01-29T20:20:18;3.17;79.21
72591;SHT31;60625;51.212;5.952;2023-01-29T20:25:19;3.17;79.32
72591;SHT31;60625;51.212;5.952;2023-01-29T20:30:19;3.16;79.52
72591;SHT31;60625;51.212;5.952;2023-01-29T20:35:20;3.16;79.66
72591;SHT31;60625;51.212;5.952;2023-01-29T20:40:21;3.17;79.77
72591;SHT31;60625;51.212;5.952;2023-01-29T20:45:21;3.19;79.90
72591;SHT31;60625;51.212;5.952;2023-01-29T20:50:22;3.22;80.00
72591;SHT31;60625;51.212;5.952;2023-01-29T20:55:22;3.26;80.11
72591;SHT31;60625;51.212;5.952;2023-01-29T21:00:23;3.29;80.14
72591;SHT31;60625;51.212;5.952;2023-01-29T21:05:24;3.31;80.19
72591;SHT31;60625;51.212;5.952;2023-01-29T21:10:25;3.34;80.38
72591;SHT31;60625;51.212;5.952;2023-01-29T21:15:25;3.37;80.60
72591;SHT31;60625;51.212;5.952;2023-01-29T21:20:26;3.38;80.90
72591;SHT31;60625;51.212;5.952;2023-01-29T21:25:27;3.39;81.13
72591;SHT31;60625;51.212;5.952;2023-01-29T21:30:28;3.39;81.43
72591;SHT31;60625;51.212;5.952;2023-01-29T21:35:29;3.41;81.68
72591;SHT31;60625;51.212;5.952;2023-01-29T21:40:30;3.44;81.93
72591;SHT31;60625;51.212;5.952;2023-01-29T21:45:31;3.48;82.16
72591;SHT31;60625;51.212;5.952;2023-01-29T21:50:31;3.50;82.19
72591;SHT31;60625;51.212;5.952;2023-01-29T21:55:32;3.51;82.35
72591;SHT31;60625;51.212;5.952;2023-01-29T22:00:32;3.52;82.56
72591;SHT31;60625;51.212;5.952;2023-01-29T22:05:33;3.53;82.67
72591;SHT31;60625;51.212;5.952;2023-01-29T22:10:34;3.56;83.04
72591;SHT31;60625;51.212;5.952;2023-01-29T22:15:35;3.59;83.07
72591;SHT31;60625;51.212;5.952;2023-01-29T22:20:36;3.63;83.24
72591;SHT31;60625;51.212;5.952;2023-01-29T22:25:36;3.67;83.49
72591;SHT31;60625;51.212;5.952;2023-01-29T22:30:36;3.71;83.78
72591;SHT31;60625;51.212;5.952;2023-01-29T22:35:37;3.76;83.99
72591;SHT31;60625;51.212;5.952;2023-01-29T22:40:38;3.81;83.97
72591;SHT31;60625;51.212;5.952;2023-01-29T22:45:38;3.83;84.11
72591;SHT31;60625;51.212;5.952;2023-01-29T22:50:39;3.86;84.14
72591;SHT31;60625;51.212;5.952;2023-01-29T22:55:40;3.88;84.08
72591;SHT31;60625;51.212;5.952;2023-01-29T23:00:40;3.89;84.18
72591;SHT31;60625;51.212;5.952;2023-01-29T23:05:41;3.91;84.38
72591;SHT31;60625;51.212;5.952;2023-01-29T23:10:42;3.92;84.65
72591;SHT31;60625;51.212;5.952;2023-01-29T23:15:42;3.97;84.85
72591;SHT31;60625;51.212;5.952;2023-01-29T23:20:43;4.01;84.81
72591;SHT31;60625;51.212;5.952;2023-01-29T23:25:43;4.06;85.00
72591;SHT31;60625;51.212;5.952;2023-01-29T23:31:02;4.10;84.95
72591;SHT31;60625;51.212;5.952;2023-01-29T23:36:03;4.14;85.01
72591;SHT31;60625;51.212;5.952;2023-01-29T23:41:05;4.18;85.07
72591;SHT31;60625;51.212;5.952;2023-01-29T23:46:06;4.21;85.33
72591;SHT31;60625;51.212;5.952;2023-01-29T23:51:06;4.25;85.20
72591;SHT31;60625;51.212;5.952;2023-01-29T23:56:06;4.30;85.35
